Lindong, China
Current Conditions -  °F | °C
As of 4:00 PM on Monday 24 Nov 2014 (Local Time) from ZYTX Reporting Station
Clear Clear  
Wind Chill: 29°   Ceiling: Unl
Heat Index: 36°   Visibility: 6mi
Dew Point:   Wind: 9mph
Humidity: 33%   Direction: 10°N
Pressure: 30.3"   Gusts: NA
Location:  43.98°N, 119.4°E
Report Text: ZYTX 240800Z 01004MPS CAVOK 02/M13 Q1026 NOSIG
Loading
Personal Weather Stations






























Interactive Weather Map New forecast layout! Learn more

10-Day Weather Forecast

Advertisements
Track Severe Weather on mobile